»·PEaware :: N802TZ KSBA-KVNY

N802TZ :: KSBA-KVNY

FLIGHT INFORMATION

Flight Status: Arrived
Operator: Privately registered:
United States
More flights under this callsign
Pilot: Vinicius U. (17612)
Aircraft: PIPER PA-46-310/350P MALIBU MIRAGE
(PA46)
More flights by this aircraft type
Origin: KSBA Santa Barbara Mun
United States
Destination: KVNY Van Nuys
United States
More flights between these airports :: More routes between these airports
Route: KWANG CMA CMA072 GINNA
File this flight plan on PilotEdge
Remarks:
Altitude:
(Current/Filed)
5,000ft
Speed:
(Current/Filed)
180kts
Departed: 07-Jan-18 10:03 AM
Arrived: 07-Jan-18 10:44 AM
Distance/Time
Traveled:
68nm/0:41
Distance/Time
To Go:
Arrived

Flight Plot

Page will automatically refresh every two minutes.


Map Options




Map Legend


Flown Route
Filed Route
Departure Airport
Arrival Airport
Navaid (VOR, NDB)
Fix

Horizontal Profiles

Position Reports

Time Latitude Longitude Heading Altitude Ground
Speed
07-Jan-18 09:40 34.432671 -119.835606 339 14ft 0kts
07-Jan-18 09:41 34.432671 -119.835606 339 14ft 0kts
07-Jan-18 09:42 34.432671 -119.835606 339 14ft 0kts
07-Jan-18 09:43 34.432671 -119.835606 339 14ft 0kts
07-Jan-18 09:44 34.432671 -119.835606 339 14ft 0kts
07-Jan-18 09:45 34.432671 -119.835606 339 14ft 0kts
07-Jan-18 09:46 34.432671 -119.835606 339 14ft 0kts
07-Jan-18 09:47 34.432671 -119.835606 339 14ft 0kts
07-Jan-18 09:48 34.432671 -119.835606 339 14ft 0kts
07-Jan-18 09:49 34.432671 -119.835606 339 14ft 0kts
07-Jan-18 09:50 34.432671 -119.835606 339 14ft 0kts
07-Jan-18 09:51 34.432671 -119.835606 339 14ft 0kts
07-Jan-18 09:52 34.432671 -119.835606 339 14ft 0kts
07-Jan-18 09:53 34.432671 -119.835606 339 14ft 0kts
07-Jan-18 09:54 34.432671 -119.835606 339 14ft 0kts
07-Jan-18 09:55 34.432671 -119.835606 339 14ft 0kts
07-Jan-18 09:56 34.432671 -119.835606 339 14ft 0kts
07-Jan-18 09:57 34.432671 -119.835606 339 14ft 0kts
07-Jan-18 09:58 34.432671 -119.835606 339 14ft 0kts
07-Jan-18 09:59 34.432672 -119.835606 339 14ft 0kts
07-Jan-18 10:00 34.432673 -119.835607 339 14ft 0kts
07-Jan-18 10:01 34.432675 -119.835607 339 14ft 0kts
07-Jan-18 10:02 34.432676 -119.835608 339 14ft 0kts
07-Jan-18 10:03 34.432373 -119.835477 159 14ft 9kts
07-Jan-18 10:04 34.430873 -119.839346 242 14ft 15kts
07-Jan-18 10:05 34.430689 -119.839753 241 14ft 0kts
07-Jan-18 10:06 34.430686 -119.839760 241 14ft 0kts
07-Jan-18 10:07 34.430685 -119.839762 241 14ft 0kts
07-Jan-18 10:08 34.429276 -119.839889 163 14ft 31kts
07-Jan-18 10:09 34.406061 -119.831666 165 380ft 112kts
07-Jan-18 10:10 34.369899 -119.821708 166 1009ft 138kts
07-Jan-18 10:11 34.336882 -119.806049 105 1867ft 127kts
07-Jan-18 10:12 34.334419 -119.764685 97 2851ft 120kts
07-Jan-18 10:13 34.330934 -119.722108 98 3573ft 132kts
07-Jan-18 10:14 34.326411 -119.676829 98 4283ft 137kts
07-Jan-18 10:15 34.321395 -119.630690 98 4943ft 141kts
07-Jan-18 10:16 34.316081 -119.581876 98 5002ft 148kts
07-Jan-18 10:17 34.310557 -119.532566 98 5001ft 146kts
07-Jan-18 10:18 34.305121 -119.483967 98 5014ft 145kts
07-Jan-18 10:19 34.299340 -119.435994 97 5015ft 143kts
07-Jan-18 10:20 34.293794 -119.388680 93 5014ft 137kts
07-Jan-18 10:21 34.290622 -119.343906 93 5015ft 131kts
07-Jan-18 10:22 34.287458 -119.300417 93 5017ft 128kts
07-Jan-18 10:23 34.284622 -119.257536 93 5029ft 127kts
07-Jan-18 10:24 34.281615 -119.214833 93 5034ft 129kts
07-Jan-18 10:25 34.278294 -119.171422 93 5031ft 128kts
07-Jan-18 10:26 34.274694 -119.128586 95 5033ft 128kts
07-Jan-18 10:27 34.274296 -119.086483 65 5040ft 126kts
07-Jan-18 10:28 34.289983 -119.048326 63 5037ft 126kts
07-Jan-18 10:29 34.305645 -119.010151 63 5039ft 127kts
07-Jan-18 10:30 34.321429 -118.971602 63 5039ft 127kts
07-Jan-18 10:31 34.337356 -118.933197 63 5040ft 128kts
07-Jan-18 10:32 34.353254 -118.894716 63 5020ft 129kts
07-Jan-18 10:33 34.369368 -118.855071 62 4976ft 129kts
07-Jan-18 10:34 34.384919 -118.816015 63 4977ft 128kts
07-Jan-18 10:35 34.400295 -118.777061 63 4977ft 128kts
07-Jan-18 10:36 34.415703 -118.737988 63 4977ft 128kts
07-Jan-18 10:37 34.428492 -118.705582 63 4979ft 127kts
07-Jan-18 10:38 34.446448 -118.660082 63 4979ft 127kts
07-Jan-18 10:39 34.462306 -118.621723 63 4977ft 127kts
07-Jan-18 10:40 34.475506 -118.589928 63 4978ft 126kts
07-Jan-18 10:41 34.479391 -118.546623 142 4999ft 130kts
07-Jan-18 10:42 34.454063 -118.526910 144 4988ft 123kts
07-Jan-18 10:43 34.418788 -118.510661 167 4994ft 116kts
07-Jan-18 10:44 34.391693 -118.509005 171 4991ft 116kts
07-Jan-18 10:45 34.359173 -118.504538 170 4538ft 124kts
07-Jan-18 10:46 34.324404 -118.500703 174 3679ft 126kts
07-Jan-18 10:47 34.289445 -118.497960 174 2711ft 123kts
07-Jan-18 10:48 34.256340 -118.494740 174 1919ft 109kts
07-Jan-18 10:49 34.226841 -118.491991 173 1154ft 101kts
07-Jan-18 10:50 34.206702 -118.490112 187 806ft 18kts
07-Jan-18 10:51 34.206383 -118.490898 264 806ft 0kts
07-Jan-18 10:52 34.206383 -118.490899 264 806ft 0kts
07-Jan-18 10:53 34.206631 -118.491203 355 806ft 13kts
07-Jan-18 10:54 34.211676 -118.491653 356 806ft 21kts
07-Jan-18 10:55 34.216246 -118.492941 298 806ft 9kts
07-Jan-18 10:56 34.216829 -118.492924 8 806ft 0kts
07-Jan-18 10:57 34.216829 -118.492924 8 806ft 0kts
07-Jan-18 10:58 34.216829 -118.492924 8 806ft 0kts

Navigation Log

Ident Type
1. KSBA Airport
2. KWANG Fix
3. CMA Navaid
4. GINNA Fix
5. KVNY Airport